createdAt,value
2022-10-28T00:04:04.192Z,69
2022-10-28T00:14:04.650Z,74
2022-10-28T00:24:04.734Z,82
2022-10-28T00:34:05.708Z,90
2022-10-28T00:44:05.801Z,94
2022-10-28T00:54:06.837Z,98
2022-10-28T01:04:07.821Z,100
2022-10-28T01:14:08.328Z,100
2022-10-28T01:24:09.062Z,100
2022-10-28T01:34:10.025Z,100
2022-10-28T01:44:10.692Z,100
2022-10-28T01:54:10.932Z,100
2022-10-28T02:04:11.525Z,100
2022-10-28T02:14:12.195Z,100
2022-10-28T02:24:12.549Z,100
2022-10-28T02:44:13.734Z,100
2022-10-28T02:54:13.913Z,100
2022-10-28T03:04:14.302Z,100
2022-10-28T03:14:15.480Z,97
2022-10-28T03:24:15.557Z,97
2022-10-28T03:34:16.049Z,94
2022-10-28T03:44:16.105Z,92
2022-10-28T03:54:16.253Z,90
2022-10-28T04:04:17.057Z,87
2022-10-28T04:14:17.591Z,85
2022-10-28T04:24:18.070Z,80
2022-10-28T04:34:18.841Z,78
2022-10-28T04:54:20.407Z,76
2022-10-28T05:04:20.509Z,77
2022-10-28T05:14:21.421Z,84
2022-10-28T05:24:21.808Z,83
2022-10-28T05:34:21.899Z,83
2022-10-28T05:44:22.651Z,81
2022-10-28T05:54:23.511Z,79
2022-10-28T06:04:24.019Z,75
2022-10-28T06:14:23.445Z,72
2022-10-28T06:24:24.043Z,71
2022-10-28T06:34:25.038Z,66
2022-10-28T06:44:25.613Z,66
2022-10-28T06:54:27.797Z,64
2022-10-28T07:04:27.931Z,60
2022-10-28T07:24:29.601Z,62
2022-10-28T07:34:29.809Z,66
2022-10-28T08:14:33.118Z,81
2022-10-28T08:24:33.291Z,78
2022-10-28T08:44:34.365Z,84
2022-10-28T08:54:34.752Z,87
2022-10-28T09:04:34.824Z,96
2022-10-28T09:14:35.628Z,97
2022-10-28T09:24:35.874Z,100
2022-10-28T09:34:36.437Z,100
2022-10-28T09:44:37.459Z,100
2022-10-28T09:54:37.670Z,100
2022-10-28T10:04:38.043Z,100
2022-10-28T10:14:38.401Z,100
2022-10-28T10:24:39.304Z,100
2022-10-28T10:34:40.160Z,100
2022-10-28T10:44:40.985Z,100
2022-10-28T10:54:41.411Z,100
2022-10-28T11:04:41.711Z,100
2022-10-28T11:14:42.198Z,100
2022-10-28T11:24:42.408Z,100
2022-10-28T11:34:42.578Z,100
2022-10-28T11:44:43.538Z,100
2022-10-28T11:54:43.650Z,100
2022-10-28T12:04:43.772Z,100
2022-10-28T12:14:44.055Z,100
2022-10-28T12:24:44.509Z,100
2022-10-28T12:34:45.362Z,100
2022-10-28T12:44:46.854Z,100
2022-10-28T12:54:49.841Z,100
2022-10-28T13:04:47.481Z,100
2022-10-28T13:14:48.178Z,100
2022-10-28T13:24:49.180Z,100
2022-10-28T13:34:50.161Z,100
2022-10-28T13:44:50.863Z,100
2022-10-28T13:54:51.506Z,100
2022-10-28T14:04:52.290Z,100
2022-10-28T14:14:52.973Z,100
2022-10-28T14:34:54.453Z,100
2022-10-28T14:44:54.749Z,100
2022-10-28T14:54:55.085Z,100
2022-10-28T15:04:55.814Z,100
2022-10-28T15:14:56.579Z,100
2022-10-28T15:24:57.593Z,100
2022-10-28T15:34:58.072Z,100
2022-10-28T15:54:59.621Z,100
2022-10-28T16:05:00.241Z,100
2022-10-28T16:15:00.788Z,100
2022-10-28T16:25:00.851Z,100
2022-10-28T16:35:00.923Z,100
2022-10-28T16:45:01.957Z,100
2022-10-28T16:55:02.744Z,100
2022-10-28T17:05:02.874Z,100
2022-10-28T17:15:03.373Z,100
2022-10-28T17:25:03.973Z,100
2022-10-28T17:35:04.855Z,100
2022-10-28T17:45:05.759Z,100
2022-10-28T17:55:05.857Z,99
2022-10-28T18:05:06.410Z,94
2022-10-28T18:15:06.850Z,89
2022-10-28T18:25:06.965Z,82
2022-10-28T18:35:07.394Z,76
2022-10-28T18:45:08.365Z,68
2022-10-28T18:55:08.539Z,67
2022-10-28T19:05:08.763Z,64
2022-10-28T19:15:09.414Z,62
2022-10-28T19:25:10.318Z,56
2022-10-28T19:35:10.442Z,53
2022-10-28T19:45:10.647Z,47
2022-10-28T19:55:14.586Z,43
2022-10-28T20:05:10.939Z,35
2022-10-28T20:15:11.745Z,33
2022-10-28T20:25:11.871Z,28
2022-10-28T20:35:12.832Z,24
2022-10-28T20:45:13.733Z,32
2022-10-28T20:55:14.444Z,31
2022-10-28T20:55:36.350Z,31
2022-10-28T21:05:20.122Z,24
2022-10-28T21:15:20.237Z,14
2022-10-28T21:25:20.570Z,0
2022-10-28T21:35:20.948Z,0
2022-10-28T21:45:21.011Z,0
2022-10-28T21:55:41.345Z,0
2022-10-28T22:05:21.898Z,0
2022-10-28T22:15:23.079Z,39
2022-10-28T22:25:23.793Z,8
2022-10-28T22:35:24.536Z,94
2022-10-28T22:45:24.925Z,0
2022-10-28T22:55:25.682Z,0
2022-10-28T23:05:26.240Z,15
2022-10-28T23:15:27.003Z,0
2022-10-28T23:25:28.437Z,20
2022-10-28T23:35:28.606Z,0
2022-10-28T23:45:29.317Z,0
2022-10-28T23:55:30.107Z,0
